Time;durP1;ratioP1;P1;durP2;ratioP2;P2;SDS_P1;SDS_P2;PMS_P1;PMS_P2;Temp;Humidity;BMP_temperature;BMP_pressure;BME280_temperature;BME280_humidity;BME280_pressure;Samples;Min_cycle;Max_cycle;Signal;HPM_P1;HPM_P2
2023/01/28 00:01:48;;;;;;;0.20;0.20;;;2.30;99.90;;;;;;4991683;28;20429;-68
2023/01/28 00:04:15;;;;;;;0.30;0.30;;;2.20;99.90;;;;;;4991135;28;20908;-69
2023/01/28 00:06:45;;;;;;;0.47;0.47;;;2.20;99.90;;;;;;4995173;28;20441;-69
2023/01/28 00:09:12;;;;;;;0.30;0.30;;;2.10;99.90;;;;;;4990513;28;20454;-68
2023/01/28 00:11:38;;;;;;;0.50;0.30;;;2.10;99.90;;;;;;4993191;28;20440;-68
2023/01/28 00:14:06;;;;;;;0.30;0.30;;;2.10;99.90;;;;;;4992326;28;20438;-68
2023/01/28 00:16:32;;;;;;;0.30;0.30;;;2.10;99.90;;;;;;4992346;28;20472;-68
2023/01/28 00:18:59;;;;;;;0.50;0.50;;;2.10;99.90;;;;;;4992312;28;20473;-68
2023/01/28 00:21:26;;;;;;;0.30;0.30;;;2.10;99.90;;;;;;4992181;28;20438;-68
2023/01/28 00:23:55;;;;;;;0.20;0.20;;;2.10;99.90;;;;;;4994794;28;20793;-68
2023/01/28 00:26:24;;;;;;;0.40;0.40;;;2.20;99.90;;;;;;4990008;28;21103;-68
2023/01/28 00:28:53;;;;;;;0.57;0.57;;;2.10;99.90;;;;;;4994852;28;20434;-69
2023/01/28 00:31:23;;;;;;;0.20;0.20;;;2.10;99.90;;;;;;4992312;28;20979;-68
2023/01/28 00:33:51;;;;;;;0.30;0.30;;;2.10;99.90;;;;;;4994098;28;20460;-68
2023/01/28 00:36:20;;;;;;;0.50;0.50;;;2.00;99.90;;;;;;4989283;28;20440;-69
2023/01/28 00:38:55;;;;;;;0.38;0.38;;;2.00;99.90;;;;;;4990175;28;20518;-68
2023/01/28 00:41:25;;;;;;;0.35;0.35;;;1.90;99.90;;;;;;4992397;28;20434;-69
2023/01/28 00:43:53;;;;;;;0.30;0.30;;;1.90;99.90;;;;;;4991377;28;20943;-68
2023/01/28 00:46:21;;;;;;;0.47;0.38;;;1.90;99.90;;;;;;4993735;28;20439;-68
2023/01/28 00:48:49;;;;;;;0.40;0.40;;;1.90;99.90;;;;;;4995100;28;20434;-68
2023/01/28 00:51:18;;;;;;;0.22;0.22;;;1.90;99.90;;;;;;4992130;28;20832;-68
2023/01/28 00:53:45;;;;;;;0.30;0.30;;;1.80;99.90;;;;;;4994186;28;20448;-68
2023/01/28 00:56:15;;;;;;;0.30;0.30;;;1.80;99.90;;;;;;4991578;28;22934;-68
2023/01/28 00:58:42;;;;;;;0.30;0.30;;;1.80;99.90;;;;;;4993501;28;20478;-68
2023/01/28 01:01:18;;;;;;;0.38;0.38;;;1.80;99.90;;;;;;4989187;28;20438;-68
2023/01/28 01:03:46;;;;;;;0.68;0.68;;;1.80;99.90;;;;;;4989766;28;20455;-68
2023/01/28 01:06:15;;;;;;;0.30;0.28;;;1.80;99.90;;;;;;4988145;28;20463;-68
2023/01/28 01:08:48;;;;;;;0.32;0.32;;;1.80;99.90;;;;;;4998351;28;20757;-68
2023/01/28 01:11:18;;;;;;;0.20;0.20;;;1.90;99.90;;;;;;4991194;28;20463;-68
2023/01/28 01:13:56;;;;;;;0.30;0.30;;;1.90;99.90;;;;;;4993809;28;20437;-68
2023/01/28 01:16:26;;;;;;;1.30;0.40;;;1.90;99.90;;;;;;4982694;28;20433;-68
2023/01/28 01:18:53;;;;;;;0.30;0.30;;;1.90;99.90;;;;;;5004543;28;20426;-68
2023/01/28 01:21:23;;;;;;;1.10;0.30;;;1.90;99.90;;;;;;4993892;28;20529;-68
2023/01/28 01:23:53;;;;;;;0.30;0.30;;;1.90;99.90;;;;;;4988693;28;20454;-68
2023/01/28 01:26:20;;;;;;;0.30;0.30;;;1.90;99.90;;;;;;4989382;28;20435;-68
2023/01/28 01:28:47;;;;;;;0.20;0.20;;;1.90;99.90;;;;;;4993117;28;20432;-68
2023/01/28 01:31:18;;;;;;;0.35;0.35;;;1.90;99.90;;;;;;4989930;28;20436;-68
2023/01/28 01:33:46;;;;;;;0.43;0.38;;;1.90;99.90;;;;;;4995024;28;20492;-68
2023/01/28 01:36:15;;;;;;;0.30;0.30;;;1.90;99.90;;;;;;4995002;28;20439;-68
2023/01/28 01:38:42;;;;;;;0.30;0.30;;;1.80;99.90;;;;;;4990505;28;20432;-68
2023/01/28 01:41:26;;;;;;;0.40;0.40;;;1.90;99.90;;;;;;4994236;28;20539;-68
2023/01/28 01:43:56;;;;;;;0.30;0.30;;;1.90;99.90;;;;;;4991685;28;20436;-69
2023/01/28 01:46:42;;;;;;;0.40;0.40;;;1.90;99.90;;;;;;4987066;28;20564;-68
2023/01/28 01:49:35;;;;;;;0.30;0.30;;;1.90;99.90;;;;;;4991574;28;20441;-68
2023/01/28 01:52:08;;;;;;;0.82;0.43;;;1.90;99.90;;;;;;4982261;28;20442;-68
2023/01/28 01:54:36;;;;;;;0.57;0.57;;;1.90;99.90;;;;;;4994454;28;20438;-71
2023/01/28 01:57:06;;;;;;;0.43;0.43;;;2.00;99.90;;;;;;4990443;28;20465;-69
2023/01/28 01:59:34;;;;;;;0.30;0.30;;;2.00;99.90;;;;;;4993513;28;20442;-68
2023/01/28 02:02:04;;;;;;;1.00;0.70;;;2.00;99.90;;;;;;4991652;28;20445;-68
2023/01/28 02:04:35;;;;;;;0.60;0.60;;;2.00;99.90;;;;;;4994071;28;20783;-68
2023/01/28 02:07:03;;;;;;;0.20;0.20;;;2.00;99.90;;;;;;4991224;28;20438;-68
2023/01/28 02:09:33;;;;;;;0.43;0.43;;;2.00;99.90;;;;;;4985278;28;20438;-69
2023/01/28 02:12:07;;;;;;;0.30;0.30;;;2.00;99.90;;;;;;4991739;28;20437;-69
2023/01/28 02:14:40;;;;;;;0.53;0.53;;;1.90;99.90;;;;;;4990240;28;20522;-68
2023/01/28 02:17:07;;;;;;;0.50;0.50;;;1.90;99.90;;;;;;4990495;28;20442;-68
2023/01/28 02:19:40;;;;;;;1.80;0.43;;;1.90;99.90;;;;;;4992608;28;20529;-68
2023/01/28 02:22:36;;;;;;;0.22;0.22;;;1.90;99.90;;;;;;4992727;28;20447;-68
2023/01/28 02:25:18;;;;;;;0.80;0.80;;;1.90;99.90;;;;;;4988165;28;21002;-69
2023/01/28 02:28:16;;;;;;;0.40;0.40;;;1.90;99.90;;;;;;4991940;28;20436;-68
2023/01/28 02:31:04;;;;;;;0.30;0.30;;;1.90;99.90;;;;;;4990412;28;21150;-68
2023/01/28 02:33:46;;;;;;;0.25;0.25;;;1.80;99.90;;;;;;4992347;28;20429;-69
2023/01/28 02:36:31;;;;;;;0.20;0.20;;;1.80;99.90;;;;;;4993104;28;20443;-69
2023/01/28 02:39:05;;;;;;;0.22;0.22;;;1.70;99.90;;;;;;4989503;28;21239;-68
2023/01/28 02:41:36;;;;;;;0.28;0.28;;;1.60;99.90;;;;;;4991612;28;20524;-68
2023/01/28 02:44:04;;;;;;;0.32;0.20;;;1.60;99.90;;;;;;4990910;28;20446;-68
2023/01/28 02:49:24;;;;;;;1.90;0.80;;;1.50;99.90;;;;;;4992144;28;20442;-68
2023/01/28 02:55:38;;;;;;;0.30;0.30;;;1.40;99.90;;;;;;4988776;28;20518;-69
2023/01/28 02:58:10;;;;;;;0.60;0.60;;;1.50;99.90;;;;;;4991491;28;20817;-68
2023/01/28 03:00:46;;;;;;;0.30;0.30;;;1.50;99.90;;;;;;4988266;28;20436;-68
2023/01/28 03:03:20;;;;;;;0.20;0.20;;;1.50;99.90;;;;;;4989941;28;20438;-68
2023/01/28 03:06:05;;;;;;;0.45;0.45;;;1.50;99.90;;;;;;4994323;28;20437;-68
2023/01/28 03:36:53;;;;;;;0.20;0.20;;;1.70;99.90;;;;;;4993889;28;20472;-68
2023/01/28 03:39:26;;;;;;;0.25;0.20;;;1.70;99.90;;;;;;4990188;28;20497;-68
2023/01/28 03:42:08;;;;;;;1.10;0.30;;;1.70;99.90;;;;;;4993278;28;20956;-68
2023/01/28 03:44:54;;;;;;;2.20;0.57;;;1.70;99.90;;;;;;4990878;28;20440;-69
2023/01/28 03:47:23;;;;;;;0.30;0.30;;;1.70;99.90;;;;;;4990255;28;20433;-68
2023/01/28 03:49:52;;;;;;;0.20;0.20;;;1.70;99.90;;;;;;4993181;28;20474;-68
2023/01/28 03:52:22;;;;;;;0.50;0.50;;;1.70;99.90;;;;;;4991663;28;20432;-68
2023/01/28 03:54:49;;;;;;;0.30;0.30;;;1.70;99.90;;;;;;4987837;28;20443;-68
2023/01/28 03:57:17;;;;;;;0.20;0.20;;;1.70;99.90;;;;;;4993521;28;20442;-68
2023/01/28 03:59:51;;;;;;;0.43;0.23;;;1.70;99.90;;;;;;4991911;28;20476;-68
2023/01/28 04:02:22;;;;;;;0.30;0.30;;;1.60;99.90;;;;;;4990716;28;21192;-68
2023/01/28 04:04:49;;;;;;;0.30;0.30;;;1.60;99.90;;;;;;4987033;28;21429;-68
2023/01/28 04:07:16;;;;;;;0.40;0.40;;;1.60;99.90;;;;;;4991453;28;20436;-68
2023/01/28 04:09:43;;;;;;;0.70;0.70;;;1.60;99.90;;;;;;4987089;28;20465;-68
2023/01/28 04:12:11;;;;;;;0.28;0.28;;;1.60;99.90;;;;;;4991836;28;20462;-68
2023/01/28 04:14:38;;;;;;;0.13;0.13;;;1.60;99.90;;;;;;4993103;28;20825;-68
2023/01/28 04:17:09;;;;;;;0.30;0.20;;;1.60;99.90;;;;;;4987275;28;20442;-69
2023/01/28 04:19:36;;;;;;;0.20;0.20;;;1.50;99.90;;;;;;4990385;28;20456;-68
2023/01/28 04:22:09;;;;;;;0.38;0.38;;;1.50;99.90;;;;;;4989362;28;20465;-68
2023/01/28 04:24:35;;;;;;;0.60;0.57;;;1.50;99.90;;;;;;4989207;28;20436;-68
2023/01/28 04:27:02;;;;;;;0.22;0.22;;;1.50;99.90;;;;;;4992167;28;20443;-68
2023/01/28 04:29:30;;;;;;;0.80;0.38;;;1.50;99.90;;;;;;4999059;28;20440;-68
2023/01/28 04:31:57;;;;;;;0.43;0.43;;;1.50;99.90;;;;;;4996692;28;20451;-68
2023/01/28 04:34:25;;;;;;;0.17;0.17;;;1.50;99.90;;;;;;4994581;28;20521;-68
2023/01/28 04:36:54;;;;;;;0.30;0.30;;;1.50;99.90;;;;;;4997177;28;20430;-68
2023/01/28 04:39:20;;;;;;;0.20;0.20;;;1.50;99.90;;;;;;4993753;28;20425;-68
2023/01/28 04:41:47;;;;;;;0.30;0.30;;;1.50;99.90;;;;;;4996696;28;20436;-68
2023/01/28 04:44:16;;;;;;;0.45;0.45;;;1.50;99.90;;;;;;5008730;28;21073;-68
2023/01/28 04:46:42;;;;;;;0.60;0.60;;;1.50;99.90;;;;;;4997787;28;20473;-68
2023/01/28 04:49:09;;;;;;;2.30;0.20;;;1.50;99.90;;;;;;4990147;28;20894;-67
2023/01/28 04:51:36;;;;;;;0.60;0.50;;;1.50;99.90;;;;;;4995705;28;20448;-68
2023/01/28 04:54:03;;;;;;;0.43;0.43;;;1.50;99.90;;;;;;4997075;28;20436;-68
2023/01/28 04:56:33;;;;;;;0.30;0.30;;;1.40;99.90;;;;;;4991896;28;20811;-68
2023/01/28 04:59:01;;;;;;;0.10;0.10;;;1.30;99.90;;;;;;4991760;28;20438;-68
2023/01/28 05:01:29;;;;;;;0.13;0.13;;;1.20;99.90;;;;;;4992878;28;20538;-68
2023/01/28 05:03:56;;;;;;;0.30;0.30;;;1.20;99.90;;;;;;4994757;28;20447;-68
2023/01/28 05:06:23;;;;;;;0.20;0.20;;;1.20;99.90;;;;;;4995856;28;20429;-68
2023/01/28 05:08:49;;;;;;;1.50;0.40;;;1.30;99.90;;;;;;4993717;28;20487;-68
2023/01/28 05:11:17;;;;;;;0.20;0.20;;;1.40;99.90;;;;;;4993662;28;20440;-68
2023/01/28 05:13:43;;;;;;;0.40;0.40;;;1.40;99.90;;;;;;4991755;28;20441;-68
2023/01/28 05:16:10;;;;;;;0.20;0.20;;;1.50;99.90;;;;;;4994094;28;20517;-68
2023/01/28 05:18:37;;;;;;;0.40;0.40;;;1.50;99.90;;;;;;4990247;28;20800;-68
2023/01/28 05:21:04;;;;;;;0.20;0.20;;;1.50;99.90;;;;;;4990103;28;20920;-68
2023/01/28 05:23:34;;;;;;;0.30;0.30;;;1.50;99.90;;;;;;4988601;28;20468;-68
2023/01/28 05:26:01;;;;;;;0.28;0.28;;;1.50;99.90;;;;;;4993268;28;20437;-68
2023/01/28 05:28:30;;;;;;;0.20;0.20;;;1.50;99.90;;;;;;4990920;28;20443;-68
2023/01/28 05:31:05;;;;;;;0.40;0.20;;;1.50;99.90;;;;;;4991473;28;20511;-68
2023/01/28 05:33:33;;;;;;;4.00;0.30;;;1.50;99.90;;;;;;4992408;28;20443;-68
2023/01/28 05:36:00;;;;;;;0.32;0.32;;;1.50;99.90;;;;;;4992862;28;20515;-68
2023/01/28 05:38:26;;;;;;;0.20;0.20;;;1.50;99.90;;;;;;4994880;28;20439;-68
2023/01/28 05:40:53;;;;;;;0.45;0.45;;;1.50;99.90;;;;;;4994717;28;20447;-68
2023/01/28 05:43:20;;;;;;;0.30;0.30;;;1.60;99.90;;;;;;4993502;28;20448;-68
2023/01/28 05:45:46;;;;;;;0.28;0.28;;;1.50;99.90;;;;;;4993116;28;21369;-68
2023/01/28 05:48:13;;;;;;;0.80;0.80;;;1.60;99.90;;;;;;4992058;28;20555;-68
2023/01/28 05:50:40;;;;;;;0.20;0.20;;;1.60;99.90;;;;;;4991748;28;20434;-68
2023/01/28 05:53:08;;;;;;;0.40;0.40;;;1.60;99.90;;;;;;4990052;28;20951;-68
2023/01/28 05:55:35;;;;;;;0.43;0.43;;;1.60;99.90;;;;;;4992157;28;20446;-68
2023/01/28 05:58:01;;;;;;;0.30;0.30;;;1.60;99.90;;;;;;4989811;28;20436;-68
2023/01/28 06:00:28;;;;;;;0.30;0.30;;;1.70;99.90;;;;;;4992876;28;20475;-68
2023/01/28 06:02:55;;;;;;;0.10;0.10;;;1.70;99.90;;;;;;4989197;28;20438;-70
2023/01/28 06:05:22;;;;;;;0.20;0.20;;;1.70;99.90;;;;;;4992051;28;20428;-68
2023/01/28 06:07:49;;;;;;;0.90;0.50;;;1.70;99.90;;;;;;4988148;28;20473;-68
2023/01/28 06:10:19;;;;;;;0.32;0.32;;;1.70;99.90;;;;;;4993378;28;20436;-68
2023/01/28 06:12:46;;;;;;;0.60;0.60;;;1.70;99.90;;;;;;4989992;28;20449;-68
2023/01/28 06:15:13;;;;;;;0.52;0.40;;;1.70;99.90;;;;;;4995771;28;20447;-68
2023/01/28 06:17:39;;;;;;;0.30;0.30;;;1.70;99.90;;;;;;4990551;28;20536;-69
2023/01/28 06:20:07;;;;;;;0.85;0.55;;;1.70;99.90;;;;;;4989298;28;20432;-68
2023/01/28 06:22:34;;;;;;;0.80;0.70;;;1.70;99.90;;;;;;4984909;28;20445;-68
2023/01/28 06:25:01;;;;;;;1.35;0.45;;;1.70;99.90;;;;;;4991395;28;20491;-68
2023/01/28 06:27:28;;;;;;;0.57;0.50;;;1.70;99.90;;;;;;4988528;28;20920;-68
2023/01/28 06:29:55;;;;;;;1.50;0.40;;;1.70;99.90;;;;;;4990307;28;20436;-68
2023/01/28 06:32:21;;;;;;;0.20;0.20;;;1.80;99.90;;;;;;4987706;28;20433;-68
2023/01/28 06:34:48;;;;;;;0.30;0.30;;;1.80;99.90;;;;;;4993586;28;20467;-68
2023/01/28 06:37:15;;;;;;;0.40;0.40;;;1.70;99.90;;;;;;4991913;28;20461;-68
2023/01/28 06:39:44;;;;;;;0.50;0.45;;;1.70;99.90;;;;;;4982714;28;20438;-68
2023/01/28 06:42:10;;;;;;;0.35;0.35;;;1.70;99.90;;;;;;4989126;28;20433;-67
2023/01/28 06:44:38;;;;;;;0.60;0.60;;;1.70;99.90;;;;;;4990086;28;21021;-68
2023/01/28 06:47:05;;;;;;;0.20;0.20;;;1.70;99.90;;;;;;4985752;28;20444;-68
2023/01/28 06:49:35;;;;;;;0.55;0.25;;;1.70;99.90;;;;;;4988854;28;20447;-68
2023/01/28 06:52:02;;;;;;;0.30;0.30;;;1.60;99.90;;;;;;4991942;28;20440;-68
2023/01/28 06:54:29;;;;;;;4.90;0.68;;;1.60;99.90;;;;;;4989912;28;20488;-67
2023/01/28 06:56:56;;;;;;;0.60;0.60;;;1.60;99.90;;;;;;4993103;28;20533;-67
2023/01/28 06:59:25;;;;;;;0.38;0.38;;;1.60;99.90;;;;;;4989228;28;20530;-67
2023/01/28 07:01:51;;;;;;;0.30;0.30;;;1.60;99.90;;;;;;4985905;28;20436;-68
2023/01/28 07:04:19;;;;;;;0.60;0.40;;;1.60;99.90;;;;;;4990341;28;20496;-68
2023/01/28 07:06:46;;;;;;;0.47;0.47;;;1.60;99.90;;;;;;4991037;28;20540;-67
2023/01/28 07:09:13;;;;;;;0.30;0.30;;;1.60;99.90;;;;;;4989856;28;20441;-68
2023/01/28 07:11:39;;;;;;;0.50;0.32;;;1.60;99.90;;;;;;4992914;28;20934;-67
2023/01/28 07:14:06;;;;;;;0.30;0.30;;;1.60;99.90;;;;;;4990140;28;20456;-67
2023/01/28 07:16:33;;;;;;;0.30;0.30;;;1.70;99.90;;;;;;4980425;28;20579;-69
2023/01/28 07:19:00;;;;;;;0.73;0.57;;;1.60;99.90;;;;;;4981005;28;20446;-67
2023/01/28 07:21:27;;;;;;;0.10;0.10;;;1.70;99.90;;;;;;4980663;28;20440;-67
2023/01/28 07:23:56;;;;;;;0.90;0.45;;;1.70;99.90;;;;;;4980456;28;20523;-68
2023/01/28 07:26:23;;;;;;;0.35;0.30;;;1.70;99.90;;;;;;4982692;28;20490;-67
2023/01/28 07:28:51;;;;;;;0.40;0.40;;;1.70;99.90;;;;;;4980568;28;21430;-67
2023/01/28 07:31:18;;;;;;;0.40;0.40;;;1.70;99.90;;;;;;4976233;28;20439;-67
2023/01/28 07:33:45;;;;;;;0.38;0.38;;;1.70;99.90;;;;;;4980836;28;20821;-67
2023/01/28 07:36:14;;;;;;;0.35;0.35;;;1.70;99.90;;;;;;4987121;28;20433;-67
2023/01/28 07:38:43;;;;;;;0.30;0.30;;;1.70;99.90;;;;;;4986670;28;20438;-67
2023/01/28 07:41:10;;;;;;;0.37;0.37;;;1.70;99.90;;;;;;4992472;28;20870;-67
2023/01/28 07:43:38;;;;;;;0.22;0.22;;;1.70;99.90;;;;;;4984325;28;20446;-67
2023/01/28 07:46:05;;;;;;;3.20;0.40;;;1.70;99.90;;;;;;4985788;28;20445;-67
2023/01/28 07:48:35;;;;;;;0.40;0.40;;;1.80;99.90;;;;;;4988973;28;20450;-67
2023/01/28 07:51:02;;;;;;;0.60;0.60;;;1.80;99.90;;;;;;4987116;28;20561;-67
2023/01/28 07:53:28;;;;;;;0.30;0.30;;;1.80;99.90;;;;;;4986944;28;20431;-67
2023/01/28 07:56:00;;;;;;;1.48;0.73;;;1.80;99.90;;;;;;4983247;28;20454;-67
2023/01/28 07:58:27;;;;;;;0.30;0.30;;;1.90;99.90;;;;;;4980636;28;20465;-67
2023/01/28 08:00:57;;;;;;;0.20;0.20;;;1.90;99.90;;;;;;4986711;28;20436;-67
2023/01/28 08:03:25;;;;;;;0.30;0.30;;;1.90;99.90;;;;;;5004311;28;20525;-67
2023/01/28 08:05:54;;;;;;;0.40;0.40;;;1.90;99.90;;;;;;4989982;28;20445;-67
2023/01/28 08:08:26;;;;;;;0.35;0.35;;;2.00;99.90;;;;;;4982898;28;20435;-67
2023/01/28 08:10:52;;;;;;;0.30;0.30;;;2.00;99.90;;;;;;4989108;28;20436;-67
2023/01/28 08:13:19;;;;;;;0.50;0.50;;;2.00;99.90;;;;;;5005320;28;20557;-67
2023/01/28 08:15:46;;;;;;;0.32;0.32;;;2.00;99.90;;;;;;4985797;28;20446;-67
2023/01/28 08:18:16;;;;;;;0.20;0.20;;;2.00;99.90;;;;;;4989831;28;20430;-68
2023/01/28 08:20:46;;;;;;;0.50;0.50;;;2.10;99.90;;;;;;4989816;28;20467;-67
2023/01/28 08:23:18;;;;;;;0.20;0.20;;;2.10;99.90;;;;;;4990400;28;20840;-67
2023/01/28 08:25:46;;;;;;;0.22;0.22;;;2.20;99.90;;;;;;4987331;28;20475;-67
2023/01/28 08:28:14;;;;;;;0.20;0.20;;;2.20;99.90;;;;;;4984930;28;20452;-67
2023/01/28 08:30:42;;;;;;;0.82;0.73;;;2.20;99.90;;;;;;4984787;28;20950;-67
2023/01/28 08:33:10;;;;;;;0.45;0.45;;;2.20;99.90;;;;;;4990225;28;21172;-67
2023/01/28 08:35:37;;;;;;;0.47;0.47;;;2.30;99.90;;;;;;4986863;28;20445;-67
2023/01/28 08:38:06;;;;;;;0.38;0.38;;;2.30;99.90;;;;;;4984642;28;20461;-67
2023/01/28 08:40:33;;;;;;;0.20;0.20;;;2.30;99.90;;;;;;4982789;28;20436;-67
2023/01/28 08:43:00;;;;;;;0.32;0.32;;;2.40;99.90;;;;;;4987551;28;20448;-67
2023/01/28 08:45:29;;;;;;;0.20;0.20;;;2.40;99.90;;;;;;4989819;28;20438;-67
2023/01/28 08:47:58;;;;;;;0.55;0.55;;;2.50;99.90;;;;;;4976750;28;20905;-67
2023/01/28 08:50:28;;;;;;;0.40;0.40;;;2.50;99.90;;;;;;4982430;28;20432;-66
2023/01/28 08:52:56;;;;;;;0.40;0.40;;;2.60;99.90;;;;;;5003427;28;20498;-67
2023/01/28 08:55:24;;;;;;;0.40;0.40;;;2.60;99.90;;;;;;4983660;28;20433;-67
2023/01/28 08:57:54;;;;;;;0.50;0.50;;;2.60;99.90;;;;;;4989747;28;20439;-67
2023/01/28 09:00:24;;;;;;;0.40;0.40;;;2.60;99.90;;;;;;4992232;28;22292;-66
2023/01/28 09:02:52;;;;;;;2.70;0.30;;;2.70;99.90;;;;;;4991120;28;21192;-67
2023/01/28 09:05:20;;;;;;;0.30;0.30;;;2.70;99.90;;;;;;5004941;28;20436;-67
2023/01/28 09:07:47;;;;;;;0.43;0.43;;;2.80;99.90;;;;;;4983495;28;20523;-67
2023/01/28 09:10:19;;;;;;;0.40;0.38;;;2.90;99.90;;;;;;4987634;28;20432;-67
2023/01/28 09:12:46;;;;;;;0.28;0.28;;;2.80;99.90;;;;;;4988436;28;20498;-67
2023/01/28 09:15:14;;;;;;;0.50;0.40;;;2.70;99.90;;;;;;4987649;28;20433;-69
2023/01/28 09:17:41;;;;;;;0.40;0.40;;;2.70;99.90;;;;;;4984621;28;20519;-68
2023/01/28 09:20:08;;;;;;;0.30;0.30;;;2.70;99.90;;;;;;4988591;28;20451;-66
2023/01/28 09:22:35;;;;;;;1.77;0.60;;;2.70;99.90;;;;;;4986023;28;20432;-66
2023/01/28 09:25:06;;;;;;;0.35;0.35;;;2.80;99.90;;;;;;4983678;28;20981;-68
2023/01/28 09:27:33;;;;;;;0.40;0.40;;;2.70;99.90;;;;;;4989838;28;20442;-69
2023/01/28 09:30:00;;;;;;;2.20;0.52;;;2.70;99.90;;;;;;4988062;28;20573;-66
2023/01/28 09:32:27;;;;;;;1.27;0.45;;;2.70;99.90;;;;;;4987483;28;20443;-67
2023/01/28 09:34:53;;;;;;;1.05;0.98;;;2.70;99.90;;;;;;4986039;28;21328;-67
2023/01/28 09:37:24;;;;;;;0.40;0.40;;;2.70;99.90;;;;;;4981451;28;20449;-66
2023/01/28 09:39:54;;;;;;;0.50;0.50;;;2.70;99.90;;;;;;4985495;28;20437;-67
2023/01/28 09:42:49;;;;;;;0.20;0.20;;;2.70;99.90;;;;;;4988634;28;21476;-66
2023/01/28 09:45:39;;;;;;;0.70;0.30;;;2.70;99.90;;;;;;4985371;28;20878;-67
2023/01/28 09:48:20;;;;;;;0.50;0.50;;;2.80;99.90;;;;;;4987055;28;20849;-67
2023/01/28 09:50:53;;;;;;;1.50;0.30;;;2.90;99.90;;;;;;4987397;28;20445;-67
2023/01/28 09:53:46;;;;;;;0.38;0.38;;;3.00;99.90;;;;;;4989270;28;20528;-67
2023/01/28 09:56:24;;;;;;;0.30;0.30;;;2.90;99.90;;;;;;4981875;28;20449;-68
2023/01/28 09:58:51;;;;;;;0.30;0.30;;;3.00;99.90;;;;;;4983701;28;20437;-67
2023/01/28 10:01:35;;;;;;;0.30;0.30;;;3.00;99.90;;;;;;4980698;28;20464;-68
2023/01/28 10:04:08;;;;;;;0.20;0.20;;;3.10;99.90;;;;;;4985387;28;20441;-68
2023/01/28 10:06:35;;;;;;;0.30;0.30;;;3.10;99.90;;;;;;4987908;28;20451;-67
2023/01/28 10:09:37;;;;;;;0.35;0.35;;;3.10;99.90;;;;;;4981128;28;20433;-67
2023/01/28 10:12:12;;;;;;;0.40;0.40;;;3.10;99.90;;;;;;4982027;28;20428;-67
2023/01/28 10:14:52;;;;;;;0.50;0.50;;;3.20;99.90;;;;;;4982826;28;20452;-67
2023/01/28 10:17:30;;;;;;;0.50;0.40;;;3.30;99.90;;;;;;4983498;28;20918;-67
2023/01/28 10:20:16;;;;;;;5.97;0.77;;;3.30;99.90;;;;;;4985184;28;20437;-67
2023/01/28 10:23:03;;;;;;;0.40;0.40;;;3.40;99.90;;;;;;4982350;28;20455;-67
2023/01/28 10:25:34;;;;;;;0.80;0.60;;;3.40;99.90;;;;;;4986733;28;20956;-67
2023/01/28 10:28:09;;;;;;;0.30;0.30;;;3.40;99.90;;;;;;4986052;28;20511;-67
2023/01/28 10:30:43;;;;;;;0.30;0.30;;;3.40;99.90;;;;;;4988639;28;20482;-67
2023/01/28 10:33:28;;;;;;;0.73;0.73;;;3.40;99.90;;;;;;4987428;28;20436;-66
2023/01/28 10:35:56;;;;;;;0.65;0.60;;;3.40;99.90;;;;;;4987347;28;20437;-66
2023/01/28 10:38:25;;;;;;;0.50;0.50;;;3.50;99.90;;;;;;4984680;28;20506;-65
2023/01/28 10:40:57;;;;;;;0.40;0.40;;;3.50;99.90;;;;;;4976586;28;20555;-66
2023/01/28 10:43:26;;;;;;;0.40;0.40;;;3.50;99.90;;;;;;4984487;28;20443;-66
2023/01/28 10:46:17;;;;;;;0.50;0.50;;;3.50;99.90;;;;;;4986831;28;20974;-66
2023/01/28 10:48:58;;;;;;;0.30;0.30;;;3.50;99.90;;;;;;4985798;28;20428;-68
2023/01/28 10:51:37;;;;;;;0.38;0.32;;;3.60;99.90;;;;;;4985291;28;20582;-66
2023/01/28 10:54:16;;;;;;;0.70;0.30;;;3.70;99.90;;;;;;4983900;28;20451;-68
2023/01/28 10:56:44;;;;;;;0.40;0.40;;;3.70;99.90;;;;;;4977670;28;20450;-65
2023/01/28 10:59:27;;;;;;;0.80;0.80;;;3.80;99.90;;;;;;4981301;28;20437;-66
2023/01/28 11:01:58;;;;;;;0.40;0.40;;;3.70;99.90;;;;;;4976909;28;20448;-66
2023/01/28 11:04:26;;;;;;;0.57;0.47;;;3.90;99.90;;;;;;4985201;28;20479;-66
2023/01/28 11:06:55;;;;;;;1.45;0.65;;;4.10;99.90;;;;;;4985994;28;20449;-66
2023/01/28 11:09:26;;;;;;;0.60;0.60;;;4.20;99.90;;;;;;5002407;28;20921;-65
2023/01/28 11:11:53;;;;;;;0.60;0.60;;;4.30;99.90;;;;;;4986283;28;20456;-65
2023/01/28 11:14:26;;;;;;;0.52;0.52;;;4.30;99.90;;;;;;4985403;28;20443;-66
2023/01/28 11:16:57;;;;;;;0.40;0.40;;;4.40;99.90;;;;;;4975994;28;20445;-65
2023/01/28 11:19:33;;;;;;;0.40;0.40;;;4.40;99.90;;;;;;4981142;28;21686;-66
2023/01/28 11:22:00;;;;;;;0.50;0.50;;;4.40;99.90;;;;;;4984435;28;20901;-66
2023/01/28 11:24:32;;;;;;;0.80;0.60;;;4.50;99.90;;;;;;4979092;28;21406;-65
2023/01/28 11:27:13;;;;;;;0.32;0.32;;;4.40;99.90;;;;;;4978957;28;20447;-68
2023/01/28 11:29:43;;;;;;;0.55;0.55;;;4.40;99.90;;;;;;4987271;28;20433;-66
2023/01/28 11:32:19;;;;;;;0.60;0.60;;;4.40;99.90;;;;;;4984223;28;20440;-68
2023/01/28 11:34:52;;;;;;;0.35;0.35;;;4.50;99.90;;;;;;4980712;28;20690;-65
2023/01/28 11:37:22;;;;;;;0.70;0.30;;;4.40;99.90;;;;;;4981651;28;20432;-68
2023/01/28 11:40:01;;;;;;;0.50;0.40;;;4.50;99.90;;;;;;4985918;28;20446;-68
2023/01/28 11:42:29;;;;;;;0.47;0.47;;;4.50;99.90;;;;;;4992661;28;20498;-65
2023/01/28 11:44:56;;;;;;;0.60;0.50;;;4.50;99.90;;;;;;4992791;28;20512;-66
2023/01/28 11:47:40;;;;;;;0.30;0.30;;;4.40;99.90;;;;;;4986603;28;20453;-65
2023/01/28 11:50:40;;;;;;;0.30;0.30;;;4.20;99.90;;;;;;4989286;28;20436;-65
2023/01/28 11:53:28;;;;;;;0.45;0.45;;;4.10;99.90;;;;;;4989303;28;20529;-66
2023/01/28 11:56:25;;;;;;;0.40;0.40;;;4.20;99.90;;;;;;4989082;28;20450;-65
2023/01/28 11:59:21;;;;;;;0.30;0.30;;;4.00;99.90;;;;;;4994721;28;20502;-65
2023/01/28 12:02:15;;;;;;;0.32;0.32;;;4.10;99.90;;;;;;4992488;28;20888;-65
2023/01/28 12:04:45;;;;;;;0.35;0.35;;;4.00;99.90;;;;;;4990004;28;23216;-65
2023/01/28 12:07:20;;;;;;;0.70;0.30;;;3.90;99.90;;;;;;4987457;28;20479;-65
2023/01/28 12:10:10;;;;;;;1.02;0.80;;;4.00;99.90;;;;;;4994608;28;20588;-67
2023/01/28 12:12:47;;;;;;;0.30;0.30;;;4.00;99.90;;;;;;4988448;28;20538;-67
2023/01/28 12:15:29;;;;;;;0.30;0.30;;;3.90;99.90;;;;;;4985108;28;20445;-67
2023/01/28 12:18:27;;;;;;;0.20;0.20;;;3.80;99.90;;;;;;4989269;28;20436;-67
2023/01/28 12:21:07;;;;;;;1.60;0.30;;;3.70;99.90;;;;;;4991876;28;20868;-67
2023/01/28 12:23:56;;;;;;;0.45;0.32;;;3.70;99.90;;;;;;4987108;28;20495;-67
2023/01/28 12:27:05;;;;;;;0.65;0.65;;;3.60;99.90;;;;;;4991928;28;20429;-67
2023/01/28 12:29:50;;;;;;;0.47;0.47;;;3.50;99.90;;;;;;4991017;28;20904;-67
2023/01/28 12:32:46;;;;;;;0.50;0.50;;;3.30;99.90;;;;;;4989372;28;20432;-67
2023/01/28 12:35:49;;;;;;;0.60;0.50;;;3.20;99.90;;;;;;4994288;28;20492;-67
2023/01/28 12:38:53;;;;;;;1.00;0.65;;;3.00;99.90;;;;;;4987514;28;21023;-67
2023/01/28 12:41:24;;;;;;;0.23;0.23;;;2.90;99.90;;;;;;4987057;28;20442;-67
2023/01/28 12:44:53;;;;;;;0.32;0.32;;;2.80;99.90;;;;;;4991344;28;20416;-67
2023/01/28 12:47:28;;;;;;;0.98;0.30;;;2.70;99.90;;;;;;5006696;28;21036;-67
2023/01/28 12:50:32;;;;;;;0.40;0.40;;;2.60;99.90;;;;;;5003498;28;20476;-67
2023/01/28 12:53:26;;;;;;;0.63;0.57;;;2.50;99.90;;;;;;5001040;28;20445;-67
2023/01/28 12:56:04;;;;;;;0.40;0.40;;;2.40;99.90;;;;;;4998246;28;23118;-67
2023/01/28 12:59:10;;;;;;;0.30;0.30;;;2.40;99.90;;;;;;5003842;28;20439;-67
2023/01/28 13:02:09;;;;;;;0.30;0.30;;;2.40;99.90;;;;;;4996693;28;21295;-67
2023/01/28 13:05:16;;;;;;;0.17;0.17;;;2.40;99.90;;;;;;4999980;28;20539;-69
2023/01/28 13:08:25;;;;;;;1.10;0.60;;;2.30;99.90;;;;;;5004148;28;20678;-68
2023/01/28 13:10:58;;;;;;;0.32;0.32;;;2.20;99.90;;;;;;4985742;28;22895;-69
2023/01/28 13:13:31;;;;;;;0.50;0.28;;;2.20;99.90;;;;;;4981608;28;20558;-69
2023/01/28 13:16:22;;;;;;;0.32;0.32;;;2.30;99.90;;;;;;4986813;28;20459;-68
2023/01/28 13:19:36;;;;;;;0.25;0.25;;;2.40;99.90;;;;;;4985082;28;20492;-68
2023/01/28 13:22:24;;;;;;;0.47;0.47;;;2.30;99.90;;;;;;4990239;28;20466;-67
2023/01/28 13:24:51;;;;;;;0.30;0.30;;;2.20;99.90;;;;;;4991351;28;20424;-67
2023/01/28 13:27:27;;;;;;;0.40;0.40;;;2.10;99.90;;;;;;4993316;28;20447;-67
2023/01/28 13:30:22;;;;;;;0.20;0.20;;;2.00;99.90;;;;;;4990946;28;20803;-67
2023/01/28 13:33:00;;;;;;;0.20;0.20;;;2.00;99.90;;;;;;4992053;28;20441;-67
2023/01/28 13:35:34;;;;;;;0.40;0.40;;;2.00;99.90;;;;;;4968262;28;20440;-67
2023/01/28 13:38:19;;;;;;;0.20;0.20;;;1.90;99.90;;;;;;4992350;28;20526;-69
2023/01/28 13:40:56;;;;;;;0.10;0.10;;;1.90;99.90;;;;;;4991803;28;20436;-68
2023/01/28 13:43:36;;;;;;;0.38;0.38;;;1.90;99.90;;;;;;4977936;28;20432;-67
2023/01/28 13:46:26;;;;;;;0.30;0.30;;;1.90;99.90;;;;;;4992273;28;20433;-67
2023/01/28 13:48:57;;;;;;;0.30;0.30;;;1.90;99.90;;;;;;4985971;28;20445;-67
2023/01/28 13:51:31;;;;;;;0.50;0.50;;;1.90;99.90;;;;;;4985122;28;20434;-67
2023/01/28 13:54:13;;;;;;;0.40;0.40;;;1.90;99.90;;;;;;4981532;28;20443;-67
2023/01/28 13:56:58;;;;;;;0.50;0.50;;;1.90;99.90;;;;;;4989259;28;20434;-67
2023/01/28 13:59:48;;;;;;;0.20;0.20;;;2.00;99.90;;;;;;4985037;28;20466;-64
2023/01/28 14:02:49;;;;;;;0.35;0.32;;;2.00;99.90;;;;;;4985337;28;20448;-67
2023/01/28 14:05:44;;;;;;;0.45;0.45;;;2.10;99.90;;;;;;4984496;28;20441;-67